sensor_id;sensor_type;location;lat;lon;timestamp;pressure;altitude;pressure_sealevel;temperature;humidity
81352;BME280;70809;52.184;13.422;2023-12-20T00:00:52;100694.91;;;4.43;100.00
81352;BME280;70809;52.184;13.422;2023-12-20T00:01:54;100691.78;;;4.53;100.00
81352;BME280;70809;52.184;13.422;2023-12-20T00:02:56;100698.19;;;4.62;100.00
81352;BME280;70809;52.184;13.422;2023-12-20T00:03:57;100693.53;;;4.53;100.00
81352;BME280;70809;52.184;13.422;2023-12-20T00:04:59;100677.84;;;4.53;100.00
81352;BME280;70809;52.184;13.422;2023-12-20T00:06:01;100679.38;;;4.48;100.00
81352;BME280;70809;52.184;13.422;2023-12-20T00:07:02;100678.38;;;4.44;100.00
81352;BME280;70809;52.184;13.422;2023-12-20T00:08:05;100686.78;;;4.60;100.00
81352;BME280;70809;52.184;13.422;2023-12-20T00:09:07;100683.59;;;4.44;100.00
81352;BME280;70809;52.184;13.422;2023-12-20T00:10:10;100684.16;;;4.60;100.00
81352;BME280;70809;52.184;13.422;2023-12-20T00:11:11;100674.25;;;4.51;100.00
81352;BME280;70809;52.184;13.422;2023-12-20T00:12:13;100670.75;;;4.50;100.00
81352;BME280;70809;52.184;13.422;2023-12-20T00:13:14;100675.56;;;4.40;100.00
81352;BME280;70809;52.184;13.422;2023-12-20T00:14:16;100678.59;;;4.50;100.00
81352;BME280;70809;52.184;13.422;2023-12-20T00:15:18;100674.25;;;4.51;100.00
81352;BME280;70809;52.184;13.422;2023-12-20T00:16:19;100673.34;;;4.50;100.00
81352;BME280;70809;52.184;13.422;2023-12-20T00:17:21;100668.59;;;4.40;100.00
81352;BME280;70809;52.184;13.422;2023-12-20T00:18:23;100669.84;;;4.50;100.00
81352;BME280;70809;52.184;13.422;2023-12-20T00:19:25;100655.31;;;4.58;100.00
81352;BME280;70809;52.184;13.422;2023-12-20T00:20:28;100660.44;;;4.55;100.00
81352;BME280;70809;52.184;13.422;2023-12-20T00:21:30;100660.09;;;4.46;100.00
81352;BME280;70809;52.184;13.422;2023-12-20T00:22:31;100664.06;;;4.59;100.00
81352;BME280;70809;52.184;13.422;2023-12-20T00:23:33;100665.63;;;4.53;100.00
81352;BME280;70809;52.184;13.422;2023-12-20T00:24:35;100663.03;;;4.53;100.00
81352;BME280;70809;52.184;13.422;2023-12-20T00:25:38;100670.25;;;4.61;100.00
81352;BME280;70809;52.184;13.422;2023-12-20T00:26:39;100659.56;;;4.55;100.00
81352;BME280;70809;52.184;13.422;2023-12-20T00:27:41;100665.63;;;4.53;100.00
81352;BME280;70809;52.184;13.422;2023-12-20T00:28:44;100673.19;;;4.46;100.00
81352;BME280;70809;52.184;13.422;2023-12-20T00:29:45;100663.69;;;4.48;100.00
81352;BME280;70809;52.184;13.422;2023-12-20T00:30:48;100675.94;;;4.49;100.00
81352;BME280;70809;52.184;13.422;2023-12-20T00:31:52;100663.03;;;4.53;100.00
81352;BME280;70809;52.184;13.422;2023-12-20T00:32:55;100669.06;;;4.52;100.00
81352;BME280;70809;52.184;13.422;2023-12-20T00:33:57;100668.03;;;4.47;100.00
81352;BME280;70809;52.184;13.422;2023-12-20T00:35:00;100660.72;;;4.63;100.00
81352;BME280;70809;52.184;13.422;2023-12-20T00:36:02;100658.00;;;4.60;100.00
81352;BME280;70809;52.184;13.422;2023-12-20T00:37:04;100664.19;;;4.62;100.00
81352;BME280;70809;52.184;13.422;2023-12-20T00:38:06;100667.50;;;4.58;100.00
81352;BME280;70809;52.184;13.422;2023-12-20T00:39:08;100661.00;;;4.46;100.00
81352;BME280;70809;52.184;13.422;2023-12-20T00:40:10;100666.19;;;4.45;100.00
81352;BME280;70809;52.184;13.422;2023-12-20T00:41:14;100663.56;;;4.45;100.00
81352;BME280;70809;52.184;13.422;2023-12-20T00:42:16;100660.00;;;4.43;100.00
81352;BME280;70809;52.184;13.422;2023-12-20T00:43:18;100661.88;;;4.47;100.00
81352;BME280;70809;52.184;13.422;2023-12-20T00:44:20;100656.81;;;4.51;100.00
81352;BME280;70809;52.184;13.422;2023-12-20T00:45:23;100652.38;;;4.49;100.00
81352;BME280;70809;52.184;13.422;2023-12-20T00:46:26;100661.34;;;4.56;100.00
81352;BME280;70809;52.184;13.422;2023-12-20T00:47:28;100663.16;;;4.58;100.00
81352;BME280;70809;52.184;13.422;2023-12-20T00:48:30;100657.22;;;4.62;100.00
81352;BME280;70809;52.184;13.422;2023-12-20T00:49:32;100655.50;;;4.63;100.00
81352;BME280;70809;52.184;13.422;2023-12-20T00:50:34;100660.53;;;4.58;100.00
81352;BME280;70809;52.184;13.422;2023-12-20T00:51:35;100649.72;;;4.47;100.00
81352;BME280;70809;52.184;13.422;2023-12-20T00:52:37;100656.91;;;4.53;100.00
81352;BME280;70809;52.184;13.422;2023-12-20T00:53:39;100652.22;;;4.44;100.00
81352;BME280;70809;52.184;13.422;2023-12-20T00:54:41;100651.81;;;4.58;100.00
81352;BME280;70809;52.184;13.422;2023-12-20T00:55:42;100652.78;;;4.60;100.00
81352;BME280;70809;52.184;13.422;2023-12-20T00:56:45;100650.84;;;4.54;100.00
81352;BME280;70809;52.184;13.422;2023-12-20T00:57:47;100652.69;;;4.58;100.00
81352;BME280;70809;52.184;13.422;2023-12-20T00:58:49;100644.09;;;4.61;100.00
81352;BME280;70809;52.184;13.422;2023-12-20T00:59:51;100652.44;;;4.50;100.00
81352;BME280;70809;52.184;13.422;2023-12-20T01:00:52;100649.19;;;4.58;100.00
81352;BME280;70809;52.184;13.422;2023-12-20T01:01:54;100651.88;;;4.59;100.00
81352;BME280;70809;52.184;13.422;2023-12-20T01:02:56;100656.91;;;4.53;100.00
81352;BME280;70809;52.184;13.422;2023-12-20T01:03:58;100655.16;;;4.53;100.00
81352;BME280;70809;52.184;13.422;2023-12-20T01:05:00;100644.75;;;4.55;100.00
81352;BME280;70809;52.184;13.422;2023-12-20T01:06:01;100659.63;;;4.56;100.00
81352;BME280;70809;52.184;13.422;2023-12-20T01:07:03;100650.66;;;4.49;100.00
81352;BME280;70809;52.184;13.422;2023-12-20T01:08:06;100655.97;;;4.52;100.00
81352;BME280;70809;52.184;13.422;2023-12-20T01:09:08;100650.66;;;4.49;100.00
81352;BME280;70809;52.184;13.422;2023-12-20T01:10:09;100661.97;;;4.48;100.00
81352;BME280;70809;52.184;13.422;2023-12-20T01:11:11;100659.56;;;4.55;100.00
81352;BME280;70809;52.184;13.422;2023-12-20T01:12:14;100656.09;;;4.56;100.00
81352;BME280;70809;52.184;13.422;2023-12-20T01:13:16;100652.44;;;4.50;100.00
81352;BME280;70809;52.184;13.422;2023-12-20T01:14:18;100644.50;;;4.47;100.00
81352;BME280;70809;52.184;13.422;2023-12-20T01:15:20;100654.22;;;4.51;100.00
81352;BME280;70809;52.184;13.422;2023-12-20T01:16:22;100648.22;;;4.54;100.00
81352;BME280;70809;52.184;13.422;2023-12-20T01:17:24;100652.22;;;4.44;100.00
81352;BME280;70809;52.184;13.422;2023-12-20T01:18:26;100650.25;;;4.63;100.00
81352;BME280;70809;52.184;13.422;2023-12-20T01:19:28;100642.34;;;4.61;100.00
81352;BME280;70809;52.184;13.422;2023-12-20T01:20:30;100651.09;;;4.62;100.00
81352;BME280;70809;52.184;13.422;2023-12-20T01:21:32;100646.09;;;4.68;100.00
81352;BME280;70809;52.184;13.422;2023-12-20T01:22:34;100631.94;;;4.63;100.00
81352;BME280;70809;52.184;13.422;2023-12-20T01:23:36;100648.31;;;4.57;100.00
81352;BME280;70809;52.184;13.422;2023-12-20T01:24:37;100643.97;;;4.58;100.00
81352;BME280;70809;52.184;13.422;2023-12-20T01:25:39;100655.88;;;4.73;100.00
81352;BME280;70809;52.184;13.422;2023-12-20T01:26:41;100638.19;;;4.66;100.00
81352;BME280;70809;52.184;13.422;2023-12-20T01:27:44;100649.72;;;4.71;100.00
81352;BME280;70809;52.184;13.422;2023-12-20T01:28:46;100640.13;;;4.72;100.00
81352;BME280;70809;52.184;13.422;2023-12-20T01:29:48;100642.34;;;4.61;100.00
81352;BME280;70809;52.184;13.422;2023-12-20T01:30:49;100650.03;;;4.57;100.00
81352;BME280;70809;52.184;13.422;2023-12-20T01:31:51;100653.59;;;4.59;100.00
81352;BME280;70809;52.184;13.422;2023-12-20T01:32:53;100651.66;;;4.53;100.00
81352;BME280;70809;52.184;13.422;2023-12-20T01:33:55;100646.44;;;4.53;100.00
81352;BME280;70809;52.184;13.422;2023-12-20T01:34:56;100650.69;;;4.51;100.00
81352;BME280;70809;52.184;13.422;2023-12-20T01:36:04;100646.47;;;4.55;100.00
81352;BME280;70809;52.184;13.422;2023-12-20T01:37:06;100648.81;;;4.47;100.00
81352;BME280;70809;52.184;13.422;2023-12-20T01:38:08;100653.22;;;4.48;100.00
81352;BME280;70809;52.184;13.422;2023-12-20T01:39:10;100652.59;;;4.55;100.00
81352;BME280;70809;52.184;13.422;2023-12-20T01:40:25;100651.72;;;4.55;100.00
81352;BME280;70809;52.184;13.422;2023-12-20T01:41:27;100650.88;;;4.56;100.00
81352;BME280;70809;52.184;13.422;2023-12-20T01:42:29;100644.84;;;4.58;100.00
81352;BME280;70809;52.184;13.422;2023-12-20T01:43:32;100648.25;;;4.56;100.00
81352;BME280;70809;52.184;13.422;2023-12-20T01:44:48;100649.19;;;4.58;100.00
81352;BME280;70809;52.184;13.422;2023-12-20T01:45:50;100642.41;;;4.63;100.00
81352;BME280;70809;52.184;13.422;2023-12-20T01:46:52;100644.97;;;4.61;100.00
81352;BME280;70809;52.184;13.422;2023-12-20T01:47:54;100644.09;;;4.61;100.00
81352;BME280;70809;52.184;13.422;2023-12-20T01:48:57;100640.84;;;4.68;100.00
81352;BME280;70809;52.184;13.422;2023-12-20T01:49:59;100643.81;;;4.53;100.00
81352;BME280;70809;52.184;13.422;2023-12-20T01:51:02;100643.97;;;4.58;100.00
81352;BME280;70809;52.184;13.422;2023-12-20T01:52:04;100632.78;;;4.62;100.00
81352;BME280;70809;52.184;13.422;2023-12-20T01:53:07;100629.28;;;4.61;100.00
81352;BME280;70809;52.184;13.422;2023-12-20T01:54:10;100623.88;;;4.57;100.00
81352;BME280;70809;52.184;13.422;2023-12-20T01:55:12;100624.97;;;4.63;100.00
81352;BME280;70809;52.184;13.422;2023-12-20T01:56:15;100622.94;;;4.55;100.00
81352;BME280;70809;52.184;13.422;2023-12-20T01:57:18;100632.78;;;4.62;100.00
81352;BME280;70809;52.184;13.422;2023-12-20T01:58:19;100624.72;;;4.56;100.00
81352;BME280;70809;52.184;13.422;2023-12-20T01:59:23;100628.25;;;4.58;100.00
81352;BME280;70809;52.184;13.422;2023-12-20T02:00:25;100623.78;;;4.53;100.00
81352;BME280;70809;52.184;13.422;2023-12-20T02:01:28;100627.22;;;4.52;100.00
81352;BME280;70809;52.184;13.422;2023-12-20T02:02:31;100627.38;;;4.57;100.00
81352;BME280;70809;52.184;13.422;2023-12-20T02:03:33;100626.94;;;4.69;100.00
81352;BME280;70809;52.184;13.422;2023-12-20T02:04:35;100616.38;;;4.66;100.00
81352;BME280;70809;52.184;13.422;2023-12-20T02:05:38;100615.31;;;4.61;100.00
81352;BME280;70809;52.184;13.422;2023-12-20T02:06:40;100617.50;;;4.74;100.00
81352;BME280;70809;52.184;13.422;2023-12-20T02:07:42;100620.84;;;4.70;100.00
81352;BME280;70809;52.184;13.422;2023-12-20T02:08:44;100624.00;;;4.60;100.00
81352;BME280;70809;52.184;13.422;2023-12-20T02:09:46;100621.38;;;4.60;100.00
81352;BME280;70809;52.184;13.422;2023-12-20T02:10:48;100615.19;;;4.58;100.00
81352;BME280;70809;52.184;13.422;2023-12-20T02:11:49;100614.69;;;4.68;100.00
81352;BME280;70809;52.184;13.422;2023-12-20T02:12:51;100619.69;;;4.62;100.00
81352;BME280;70809;52.184;13.422;2023-12-20T02:13:53;100616.16;;;4.60;100.00
81352;BME280;70809;52.184;13.422;2023-12-20T02:14:56;100610.63;;;4.52;100.00
81352;BME280;70809;52.184;13.422;2023-12-20T02:15:58;100609.41;;;4.66;100.00
81352;BME280;70809;52.184;13.422;2023-12-20T02:17:00;100606.63;;;4.62;100.00
81352;BME280;70809;52.184;13.422;2023-12-20T02:18:01;100604.13;;;4.65;100.00
81352;BME280;70809;52.184;13.422;2023-12-20T02:19:03;100610.78;;;4.57;100.00
81352;BME280;70809;52.184;13.422;2023-12-20T02:20:06;100596.28;;;4.65;100.00
81352;BME280;70809;52.184;13.422;2023-12-20T02:21:09;100602.53;;;4.70;100.00
81352;BME280;70809;52.184;13.422;2023-12-20T02:22:12;100611.41;;;4.49;100.00
81352;BME280;70809;52.184;13.422;2023-12-20T02:23:14;100608.81;;;4.49;100.00
81352;BME280;70809;52.184;13.422;2023-12-20T02:24:15;100615.75;;;4.49;100.00
81352;BME280;70809;52.184;13.422;2023-12-20T02:25:17;100611.69;;;4.57;100.00
81352;BME280;70809;52.184;13.422;2023-12-20T02:26:19;100611.47;;;4.51;100.00
81352;BME280;70809;52.184;13.422;2023-12-20T02:27:21;100616.03;;;4.57;100.00
81352;BME280;70809;52.184;13.422;2023-12-20T02:28:24;100608.97;;;4.54;100.00
81352;BME280;70809;52.184;13.422;2023-12-20T02:29:26;100609.13;;;4.59;100.00
81352;BME280;70809;52.184;13.422;2023-12-20T02:30:28;100613.38;;;4.55;100.00
81352;BME280;70809;52.184;13.422;2023-12-20T02:31:29;100611.97;;;4.65;100.00
81352;BME280;70809;52.184;13.422;2023-12-20T02:32:31;100614.06;;;4.75;100.00
81352;BME280;70809;52.184;13.422;2023-12-20T02:33:33;100617.09;;;4.62;100.00
81352;BME280;70809;52.184;13.422;2023-12-20T02:34:34;100606.97;;;4.71;100.00
81352;BME280;70809;52.184;13.422;2023-12-20T02:35:36;100602.44;;;4.67;100.00
81352;BME280;70809;52.184;13.422;2023-12-20T02:36:38;100598.16;;;4.69;100.00
81352;BME280;70809;52.184;13.422;2023-12-20T02:37:41;100602.69;;;4.74;100.00
81352;BME280;70809;52.184;13.422;2023-12-20T02:38:43;100612.06;;;4.68;100.00
81352;BME280;70809;52.184;13.422;2023-12-20T02:39:45;100599.31;;;4.77;100.00
81352;BME280;70809;52.184;13.422;2023-12-20T02:40:46;100602.31;;;4.64;100.00
81352;BME280;70809;52.184;13.422;2023-12-20T02:41:50;100601.81;;;4.74;100.00
81352;BME280;70809;52.184;13.422;2023-12-20T02:42:52;100599.66;;;4.62;100.00
81352;BME280;70809;52.184;13.422;2023-12-20T02:43:54;100604.00;;;4.62;100.00
81352;BME280;70809;52.184;13.422;2023-12-20T02:44:56;100604.69;;;4.56;100.00
81352;BME280;70809;52.184;13.422;2023-12-20T02:45:58;100607.47;;;4.61;100.00
81352;BME280;70809;52.184;13.422;2023-12-20T02:46:59;100592.06;;;4.70;100.00
81352;BME280;70809;52.184;13.422;2023-12-20T02:48:01;100600.09;;;4.74;100.00
81352;BME280;70809;52.184;13.422;2023-12-20T02:49:03;100598.25;;;4.72;100.00
81352;BME280;70809;52.184;13.422;2023-12-20T02:50:05;100597.41;;;4.73;100.00
81352;BME280;70809;52.184;13.422;2023-12-20T02:51:08;100600.97;;;4.75;100.00
81352;BME280;70809;52.184;13.422;2023-12-20T02:52:10;100595.00;;;4.79;100.00
81352;BME280;70809;52.184;13.422;2023-12-20T02:53:13;100596.50;;;4.71;100.00
81352;BME280;70809;52.184;13.422;2023-12-20T02:54:14;100588.53;;;4.68;100.00
81352;BME280;70809;52.184;13.422;2023-12-20T02:55:16;100598.06;;;4.66;100.00
81352;BME280;70809;52.184;13.422;2023-12-20T02:56:18;100590.41;;;4.72;100.00
81352;BME280;70809;52.184;13.422;2023-12-20T02:57:19;100605.91;;;4.66;100.00
81352;BME280;70809;52.184;13.422;2023-12-20T02:58:21;100598.47;;;4.78;100.00
81352;BME280;70809;52.184;13.422;2023-12-20T02:59:23;100609.38;;;4.65;100.00
81352;BME280;70809;52.184;13.422;2023-12-20T03:00:24;100613.34;;;4.79;100.00
81352;BME280;70809;52.184;13.422;2023-12-20T03:01:26;100606.78;;;4.66;100.00
81352;BME280;70809;52.184;13.422;2023-12-20T03:02:28;100598.97;;;4.68;100.00
81352;BME280;70809;52.184;13.422;2023-12-20T03:03:29;100601.66;;;4.69;100.00
81352;BME280;70809;52.184;13.422;2023-12-20T03:04:31;100596.31;;;4.66;100.00
81352;BME280;70809;52.184;13.422;2023-12-20T03:05:33;100599.91;;;4.70;100.00
81352;BME280;70809;52.184;13.422;2023-12-20T03:06:36;100599.03;;;4.69;100.00
81352;BME280;70809;52.184;13.422;2023-12-20T03:07:38;100606.75;;;4.65;100.00
81352;BME280;70809;52.184;13.422;2023-12-20T03:08:41;100611.22;;;4.69;100.00
81352;BME280;70809;52.184;13.422;2023-12-20T03:09:43;100612.97;;;4.68;100.00
81352;BME280;70809;52.184;13.422;2023-12-20T03:11:05;100608.59;;;4.69;100.00
81352;BME280;70809;52.184;13.422;2023-12-20T03:12:07;100603.25;;;4.90;100.00
81352;BME280;70809;52.184;13.422;2023-12-20T03:13:08;100613.34;;;4.79;100.00
81352;BME280;70809;52.184;13.422;2023-12-20T03:14:10;100614.34;;;4.83;100.00
81352;BME280;70809;52.184;13.422;2023-12-20T03:15:12;100613.88;;;4.94;100.00
81352;BME280;70809;52.184;13.422;2023-12-20T03:16:13;100614.59;;;4.90;100.00
81352;BME280;70809;52.184;13.422;2023-12-20T03:17:15;100619.38;;;4.76;100.00
81352;BME280;70809;52.184;13.422;2023-12-20T03:18:17;100620.34;;;4.80;100.00
81352;BME280;70809;52.184;13.422;2023-12-20T03:19:18;100619.28;;;4.75;100.00
81352;BME280;70809;52.184;13.422;2023-12-20T03:20:20;100622.03;;;4.78;100.00
81352;BME280;70809;52.184;13.422;2023-12-20T03:21:22;100625.03;;;4.89;100.00
81352;BME280;70809;52.184;13.422;2023-12-20T03:22:25;100618.06;;;4.89;100.00
81352;BME280;70809;52.184;13.422;2023-12-20T03:23:27;100617.56;;;4.75;100.00
81352;BME280;70809;52.184;13.422;2023-12-20T03:24:30;100614.47;;;4.87;100.00
81352;BME280;70809;52.184;13.422;2023-12-20T03:25:32;100618.78;;;4.85;100.00
81352;BME280;70809;52.184;13.422;2023-12-20T03:26:33;100621.22;;;4.80;100.00
81352;BME280;70809;52.184;13.422;2023-12-20T03:27:37;100623.72;;;4.76;100.00
81352;BME280;70809;52.184;13.422;2023-12-20T03:28:39;100622.31;;;4.87;100.00
81352;BME280;70809;52.184;13.422;2023-12-20T03:29:40;100620.47;;;4.83;100.00
81352;BME280;70809;52.184;13.422;2023-12-20T03:30:42;100615.44;;;4.89;100.00
81352;BME280;70809;52.184;13.422;2023-12-20T03:31:44;100613.00;;;4.94;100.00
81352;BME280;70809;52.184;13.422;2023-12-20T03:32:47;100613.53;;;4.85;100.00
81352;BME280;70809;52.184;13.422;2023-12-20T03:33:49;100613.34;;;4.79;100.00
81352;BME280;70809;52.184;13.422;2023-12-20T03:34:52;100607.44;;;4.85;100.00
81352;BME280;70809;52.184;13.422;2023-12-20T03:35:54;100612.09;;;4.93;100.00
81352;BME280;70809;52.184;13.422;2023-12-20T03:36:56;100611.59;;;4.79;100.00
81352;BME280;70809;52.184;13.422;2023-12-20T03:37:57;100611.84;;;4.87;100.00
81352;BME280;70809;52.184;13.422;2023-12-20T03:38:59;100623.09;;;4.83;100.00
81352;BME280;70809;52.184;13.422;2023-12-20T03:40:03;100615.09;;;4.80;100.00
81352;BME280;70809;52.184;13.422;2023-12-20T03:41:05;100617.69;;;4.78;100.00
81352;BME280;70809;52.184;13.422;2023-12-20T03:42:07;100629.25;;;4.85;100.00
81352;BME280;70809;52.184;13.422;2023-12-20T03:43:08;100624.38;;;4.96;100.00
81352;BME280;70809;52.184;13.422;2023-12-20T03:44:10;100620.63;;;4.88;100.00
81352;BME280;70809;52.184;13.422;2023-12-20T03:45:11;100617.09;;;4.87;100.00
81352;BME280;70809;52.184;13.422;2023-12-20T03:46:13;100624.19;;;4.90;100.00
81352;BME280;70809;52.184;13.422;2023-12-20T03:47:15;100620.47;;;4.83;100.00
81352;BME280;70809;52.184;13.422;2023-12-20T03:48:16;100624.00;;;4.85;100.00
81352;BME280;70809;52.184;13.422;2023-12-20T03:49:18;100620.56;;;4.86;100.00
81352;BME280;70809;52.184;13.422;2023-12-20T03:50:20;100618.78;;;4.85;100.00
81352;BME280;70809;52.184;13.422;2023-12-20T03:51:22;100618.69;;;4.82;100.00
81352;BME280;70809;52.184;13.422;2023-12-20T03:52:23;100621.31;;;4.82;100.00
81352;BME280;70809;52.184;13.422;2023-12-20T03:53:25;100614.47;;;4.87;100.00
81352;BME280;70809;52.184;13.422;2023-12-20T03:54:27;100619.28;;;4.99;100.00
81352;BME280;70809;52.184;13.422;2023-12-20T03:55:30;100618.00;;;4.88;100.00
81352;BME280;70809;52.184;13.422;2023-12-20T03:56:32;100610.16;;;4.88;100.00
81352;BME280;70809;52.184;13.422;2023-12-20T03:57:34;100614.97;;;5.01;100.00
81352;BME280;70809;52.184;13.422;2023-12-20T03:58:36;100621.53;;;4.88;100.00
81352;BME280;70809;52.184;13.422;2023-12-20T03:59:38;100625.88;;;4.88;100.00
81352;BME280;70809;52.184;13.422;2023-12-20T04:00:39;100616.19;;;4.87;100.00
81352;BME280;70809;52.184;13.422;2023-12-20T04:01:43;100622.25;;;4.84;100.00
81352;BME280;70809;52.184;13.422;2023-12-20T04:02:44;100612.63;;;4.83;100.00
81352;BME280;70809;52.184;13.422;2023-12-20T04:03:46;100606.53;;;4.84;100.00
81352;BME280;70809;52.184;13.422;2023-12-20T04:04:48;100605.66;;;4.84;100.00
81352;BME280;70809;52.184;13.422;2023-12-20T04:05:49;100603.00;;;4.82;100.00
81352;BME280;70809;52.184;13.422;2023-12-20T04:06:51;100611.97;;;4.90;100.00
81352;BME280;70809;52.184;13.422;2023-12-20T04:07:53;100613.91;;;4.96;100.00
81352;BME280;70809;52.184;13.422;2023-12-20T04:08:54;100594.19;;;5.05;100.00
81352;BME280;70809;52.184;13.422;2023-12-20T04:09:56;100599.13;;;4.98;100.00
81352;BME280;70809;52.184;13.422;2023-12-20T04:10:59;100596.53;;;4.98;100.00
81352;BME280;70809;52.184;13.422;2023-12-20T04:12:01;100601.84;;;4.99;100.00
81352;BME280;70809;52.184;13.422;2023-12-20T04:13:03;100606.19;;;4.99;100.00
81352;BME280;70809;52.184;13.422;2023-12-20T04:14:05;100603.81;;;5.06;100.00
81352;BME280;70809;52.184;13.422;2023-12-20T04:15:08;100604.25;;;4.93;100.00
81352;BME280;70809;52.184;13.422;2023-12-20T04:16:11;100601.56;;;4.92;100.00
81352;BME280;70809;52.184;13.422;2023-12-20T04:17:13;100602.03;;;5.05;100.00
81352;BME280;70809;52.184;13.422;2023-12-20T04:18:15;100596.41;;;4.93;100.00
81352;BME280;70809;52.184;13.422;2023-12-20T04:19:17;100607.28;;;5.05;100.00
81352;BME280;70809;52.184;13.422;2023-12-20T04:20:19;100596.59;;;4.99;100.00
81352;BME280;70809;52.184;13.422;2023-12-20T04:21:20;100594.88;;;5.00;100.00
81352;BME280;70809;52.184;13.422;2023-12-20T04:22:22;100595.34;;;4.88;100.00
81352;BME280;70809;52.184;13.422;2023-12-20T04:23:24;100586.81;;;4.94;100.00
81352;BME280;70809;52.184;13.422;2023-12-20T04:24:25;100594.50;;;4.89;100.00
81352;BME280;70809;52.184;13.422;2023-12-20T04:25:27;100582.63;;;4.99;100.00
81352;BME280;70809;52.184;13.422;2023-12-20T04:26:30;100583.84;;;5.10;100.00
81352;BME280;70809;52.184;13.422;2023-12-20T04:27:32;100577.16;;;5.18;100.00
81352;BME280;70809;52.184;13.422;2023-12-20T04:28:33;100581.63;;;4.95;100.00
81352;BME280;70809;52.184;13.422;2023-12-20T04:29:35;100583.72;;;5.05;100.00
81352;BME280;70809;52.184;13.422;2023-12-20T04:30:37;100587.75;;;4.96;100.00
81352;BME280;70809;52.184;13.422;2023-12-20T04:31:38;100586.00;;;4.96;100.00
81352;BME280;70809;52.184;13.422;2023-12-20T04:32:40;100586.22;;;5.02;100.00
81352;BME280;70809;52.184;13.422;2023-12-20T04:33:42;100582.38;;;4.93;100.00
81352;BME280;70809;52.184;13.422;2023-12-20T04:34:44;100578.88;;;4.92;100.00
81352;BME280;70809;52.184;13.422;2023-12-20T04:35:46;100587.78;;;4.97;100.00
81352;BME280;70809;52.184;13.422;2023-12-20T04:36:47;100586.53;;;5.12;100.00
81352;BME280;70809;52.184;13.422;2023-12-20T04:37:49;100584.81;;;5.12;100.00
81352;BME280;70809;52.184;13.422;2023-12-20T04:38:51;100586.91;;;4.97;100.00
81352;BME280;70809;52.184;13.422;2023-12-20T04:39:53;100593.41;;;5.10;100.00
81352;BME280;70809;52.184;13.422;2023-12-20T04:40:55;100577.31;;;4.97;100.00
81352;BME280;70809;52.184;13.422;2023-12-20T04:41:58;100582.34;;;4.91;100.00
81352;BME280;70809;52.184;13.422;2023-12-20T04:43:00;100577.22;;;4.94;100.00
81352;BME280;70809;52.184;13.422;2023-12-20T04:44:03;100577.09;;;4.91;100.00
81352;BME280;70809;52.184;13.422;2023-12-20T04:45:05;100583.03;;;4.86;100.00
81352;BME280;70809;52.184;13.422;2023-12-20T04:46:07;100583.44;;;4.98;100.00
81352;BME280;70809;52.184;13.422;2023-12-20T04:47:08;100587.50;;;4.88;100.00
81352;BME280;70809;52.184;13.422;2023-12-20T04:48:12;100594.91;;;5.01;100.00
81352;BME280;70809;52.184;13.422;2023-12-20T04:49:16;100590.41;;;4.97;100.00
81352;BME280;70809;52.184;13.422;2023-12-20T04:50:21;100581.47;;;4.91;100.00
81352;BME280;70809;52.184;13.422;2023-12-20T04:51:23;100590.25;;;4.93;100.00
81352;BME280;70809;52.184;13.422;2023-12-20T04:52:25;100588.38;;;4.89;100.00
81352;BME280;70809;52.184;13.422;2023-12-20T04:53:27;100583.22;;;4.92;100.00
81352;BME280;70809;52.184;13.422;2023-12-20T04:54:28;100591.03;;;4.90;100.00
81352;BME280;70809;52.184;13.422;2023-12-20T04:55:30;100585.69;;;4.87;100.00
81352;BME280;70809;52.184;13.422;2023-12-20T04:56:33;100587.38;;;4.85;100.00
81352;BME280;70809;52.184;13.422;2023-12-20T04:57:36;100583.75;;;4.82;100.00
81352;BME280;70809;52.184;13.422;2023-12-20T04:58:37;100586.59;;;4.88;100.00
81352;BME280;70809;52.184;13.422;2023-12-20T04:59:39;100593.53;;;4.87;100.00
81352;BME280;70809;52.184;13.422;2023-12-20T05:00:41;100589.25;;;4.89;100.00
81352;BME280;70809;52.184;13.422;2023-12-20T05:01:43;100600.72;;;4.93;100.00
81352;BME280;70809;52.184;13.422;2023-12-20T05:02:44;100599.09;;;4.96;100.00
81352;BME280;70809;52.184;13.422;2023-12-20T05:03:46;100599.72;;;4.89;100.00
81352;BME280;70809;52.184;13.422;2023-12-20T05:04:48;100599.31;;;5.02;100.00
81352;BME280;70809;52.184;13.422;2023-12-20T05:05:50;100592.81;;;4.91;100.00
81352;BME280;70809;52.184;13.422;2023-12-20T05:06:51;100593.44;;;4.84;100.00
81352;BME280;70809;52.184;13.422;2023-12-20T05:07:53;100595.94;;;4.81;100.00
81352;BME280;70809;52.184;13.422;2023-12-20T05:08:55;100598.47;;;4.78;100.00
81352;BME280;70809;52.184;13.422;2023-12-20T05:09:57;100597.00;;;4.86;100.00
81352;BME280;70809;52.184;13.422;2023-12-20T05:10:59;100589.75;;;4.77;100.00
81352;BME280;70809;52.184;13.422;2023-12-20T05:12:01;100591.47;;;4.77;100.00
81352;BME280;70809;52.184;13.422;2023-12-20T05:13:05;100601.19;;;4.81;100.00
81352;BME280;70809;52.184;13.422;2023-12-20T05:14:06;100594.59;;;4.92;100.00
81352;BME280;70809;52.184;13.422;2023-12-20T05:15:08;100596.75;;;4.78;100.00
81352;BME280;70809;52.184;13.422;2023-12-20T05:16:10;100593.13;;;4.75;100.00
81352;BME280;70809;52.184;13.422;2023-12-20T05:17:12;100599.41;;;4.80;100.00
81352;BME280;70809;52.184;13.422;2023-12-20T05:18:14;100603.91;;;4.84;100.00
81352;BME280;70809;52.184;13.422;2023-12-20T05:19:16;100594.59;;;4.92;100.00
81352;BME280;70809;52.184;13.422;2023-12-20T05:20:18;100594.28;;;4.83;100.00
81352;BME280;70809;52.184;13.422;2023-12-20T05:21:19;100597.06;;;4.88;100.00